Time;durP1;ratioP1;P1;durP2;ratioP2;P2;SDS_P1;SDS_P2;PMS_P1;PMS_P2;Temp;Humidity;BMP_temperature;BMP_pressure;BME280_temperature;BME280_humidity;BME280_pressure;Samples;Min_cycle;Max_cycle;Signal;HPM_P1;HPM_P2
2023/05/29 00:00:42;;;;;;;;;;;24.70;53.40;;;;;;5106059;27;42895;-78
2023/05/29 00:03:09;;;;;;;;;;;24.70;53.40;;;;;;5091495;27;43627;-76
2023/05/29 00:05:34;;;;;;;;;;;24.80;53.40;;;;;;5102577;27;43216;-76
2023/05/29 00:08:00;;;;;;;;;;;24.70;53.40;;;;;;5103256;27;42851;-78
2023/05/29 00:10:25;;;;;;;;;;;24.80;53.40;;;;;;5104875;27;42996;-77
2023/05/29 00:12:51;;;;;;;;;;;24.80;53.30;;;;;;5103173;27;43097;-78
2023/05/29 00:15:16;;;;;;;;;;;24.80;53.50;;;;;;5094788;27;42842;-77
2023/05/29 00:17:43;;;;;;;;;;;24.70;54.00;;;;;;5099801;27;43342;-77
2023/05/29 00:20:11;;;;;;;;;;;24.70;53.40;;;;;;5103464;27;42906;-78
2023/05/29 00:22:37;;;;;;;;;;;24.80;53.90;;;;;;5086143;27;43749;-78
2023/05/29 00:25:07;;;;;;;;;;;24.70;53.40;;;;;;5085037;27;43233;-77
2023/05/29 00:27:32;;;;;;;;;;;24.80;54.00;;;;;;5086448;27;43775;-75
2023/05/29 00:29:58;;;;;;;;;;;24.70;53.80;;;;;;5085249;27;43263;-78
2023/05/29 00:32:25;;;;;;;;;;;24.70;53.80;;;;;;5085405;27;42903;-77
2023/05/29 00:34:51;;;;;;;;;;;24.70;53.70;;;;;;5084529;27;42985;-79
2023/05/29 00:37:16;;;;;;;;;;;24.70;53.70;;;;;;5084538;27;43017;-77
2023/05/29 00:39:42;;;;;;;;;;;24.70;53.70;;;;;;5085062;27;42850;-77
2023/05/29 00:42:07;;;;;;;;;;;24.70;54.30;;;;;;5083892;27;42918;-78
2023/05/29 00:44:33;;;;;;;;;;;24.60;53.80;;;;;;5084573;27;43010;-77
2023/05/29 00:46:59;;;;;;;;;;;24.60;54.30;;;;;;5104077;27;43054;-78
2023/05/29 00:49:25;;;;;;;;;;;24.60;54.00;;;;;;5103561;27;42929;-74
2023/05/29 00:51:51;;;;;;;;;;;24.60;54.50;;;;;;5084190;27;43328;-77
2023/05/29 00:54:20;;;;;;;;;;;24.60;54.00;;;;;;5085115;27;43033;-78
2023/05/29 00:56:46;;;;;;;;;;;24.60;53.80;;;;;;5088643;27;43004;-78
2023/05/29 00:59:12;;;;;;;;;;;;;;;;;;5103776;27;42998;-78
2023/05/29 01:01:38;;;;;;;;;;;24.60;53.60;;;;;;5099781;27;43906;-77
2023/05/29 01:04:06;;;;;;;;;;;24.60;53.50;;;;;;5089755;27;42870;-78
2023/05/29 01:06:32;;;;;;;;;;;24.60;53.50;;;;;;5090337;27;43506;-75
2023/05/29 01:08:58;;;;;;;;;;;24.70;53.50;;;;;;5081882;27;43108;-78
2023/05/29 01:11:26;;;;;;;;;;;24.70;53.40;;;;;;5089742;27;43789;-78
2023/05/29 01:13:54;;;;;;;;;;;24.70;53.30;;;;;;5089385;27;42998;-78
2023/05/29 01:16:26;;;;;;;;;;;24.70;53.50;;;;;;5098298;27;42968;-78
2023/05/29 01:18:54;;;;;;;;;;;24.70;53.50;;;;;;5090341;27;43008;-78
2023/05/29 01:21:32;;;;;;;;;;;24.70;53.60;;;;;;5094374;27;43862;-78
2023/05/29 01:24:01;;;;;;;;;;;24.70;53.60;;;;;;5083637;27;42914;-78
2023/05/29 01:26:30;;;;;;;;;;;24.70;54.00;;;;;;5091111;27;43545;-78
2023/05/29 01:28:58;;;;;;;;;;;24.70;54.00;;;;;;5084186;27;42963;-78
2023/05/29 01:31:25;;;;;;;;;;;24.60;53.60;;;;;;5087248;27;43382;-77
2023/05/29 01:33:58;;;;;;;;;;;24.60;53.40;;;;;;5089315;27;42881;-78
2023/05/29 01:36:24;;;;;;;;;;;24.60;53.80;;;;;;5091893;27;43202;-77
2023/05/29 01:38:50;;;;;;;;;;;24.60;53.90;;;;;;5089158;27;43236;-77
2023/05/29 01:41:16;;;;;;;;;;;24.60;54.30;;;;;;5099078;27;43500;-79
2023/05/29 01:43:43;;;;;;;;;;;24.60;53.90;;;;;;5086989;27;42808;-78
2023/05/29 01:46:09;;;;;;;;;;;24.60;54.00;;;;;;5088794;27;43010;-78
2023/05/29 01:48:35;;;;;;;;;;;24.60;54.40;;;;;;5113507;27;43212;-78
2023/05/29 01:51:00;;;;;;;;;;;24.60;54.20;;;;;;5103489;27;42970;-78
2023/05/29 01:53:26;;;;;;;;;;;24.60;53.70;;;;;;5100648;27;42938;-78
2023/05/29 01:55:52;;;;;;;;;;;24.60;54.30;;;;;;5083251;27;42914;-79
2023/05/29 01:58:18;;;;;;;;;;;24.60;53.70;;;;;;5097433;27;43002;-78
2023/05/29 02:00:44;;;;;;;;;;;24.60;53.60;;;;;;5093962;27;42937;-77
2023/05/29 02:03:09;;;;;;;;;;;24.60;53.40;;;;;;5105004;27;43112;-78
2023/05/29 02:05:35;;;;;;;;;;;24.60;52.90;;;;;;5098108;27;43012;-78
2023/05/29 02:08:00;;;;;;;;;;;24.70;53.50;;;;;;5087683;27;43102;-77
2023/05/29 02:10:26;;;;;;;;;;;24.60;53.20;;;;;;5089263;27;43016;-78
2023/05/29 02:12:51;;;;;;;;;;;24.60;53.30;;;;;;5115849;27;43024;-78
2023/05/29 02:15:17;;;;;;;;;;;24.60;53.10;;;;;;5118003;27;43005;-78
2023/05/29 02:17:44;;;;;;;;;;;24.60;53.10;;;;;;5109429;27;43003;-77
2023/05/29 02:20:10;;;;;;;;;;;24.60;53.00;;;;;;5099985;27;44101;-78
2023/05/29 02:22:36;;;;;;;;;;;24.60;52.70;;;;;;5099564;27;43277;-77
2023/05/29 02:25:01;;;;;;;;;;;24.70;53.50;;;;;;5099515;27;43472;-78
2023/05/29 02:27:27;;;;;;;;;;;24.60;52.90;;;;;;5094824;27;42913;-78
2023/05/29 02:29:52;;;;;;;;;;;24.60;52.80;;;;;;5112721;27;43719;-78
2023/05/29 02:32:18;;;;;;;;;;;24.60;52.70;;;;;;5087371;27;43262;-77
2023/05/29 02:34:44;;;;;;;;;;;24.60;53.20;;;;;;5099696;27;43386;-78
2023/05/29 02:37:10;;;;;;;;;;;24.50;53.10;;;;;;5087271;27;43064;-77
2023/05/29 02:39:35;;;;;;;;;;;24.50;53.20;;;;;;5093083;27;42917;-78
2023/05/29 02:42:01;;;;;;;;;;;24.50;53.10;;;;;;5092372;27;42925;-78
2023/05/29 02:44:26;;;;;;;;;;;24.60;53.40;;;;;;5090829;27;43301;-78
2023/05/29 02:46:52;;;;;;;;;;;24.60;53.20;;;;;;5119759;27;43036;-77
2023/05/29 02:49:17;;;;;;;;;;;24.60;52.50;;;;;;5107860;27;43062;-78
2023/05/29 02:51:42;;;;;;;;;;;24.60;53.10;;;;;;5091198;27;43272;-77
2023/05/29 02:54:08;;;;;;;;;;;24.60;53.10;;;;;;5096263;27;43048;-78
2023/05/29 02:56:34;;;;;;;;;;;24.60;52.60;;;;;;5097951;27;43012;-78
2023/05/29 02:59:00;;;;;;;;;;;24.60;52.60;;;;;;5088651;27;43505;-78
2023/05/29 03:01:25;;;;;;;;;;;24.60;52.50;;;;;;5090153;27;43267;-78
2023/05/29 03:03:51;;;;;;;;;;;24.70;52.50;;;;;;5101407;27;43546;-78
2023/05/29 03:06:17;;;;;;;;;;;24.70;52.90;;;;;;5103485;27;43006;-78
2023/05/29 03:08:44;;;;;;;;;;;24.70;52.80;;;;;;5095794;27;43539;-78
2023/05/29 03:11:11;;;;;;;;;;;24.70;52.00;;;;;;5093105;27;42998;-77
2023/05/29 03:13:39;;;;;;;;;;;24.60;51.90;;;;;;5099794;27;42956;-78
2023/05/29 03:16:05;;;;;;;;;;;24.70;52.30;;;;;;5095511;27;42985;-76
2023/05/29 03:18:30;;;;;;;;;;;24.60;52.40;;;;;;5096098;27;42897;-78
2023/05/29 03:20:56;;;;;;;;;;;24.50;52.10;;;;;;5117232;27;43141;-78
2023/05/29 03:23:22;;;;;;;;;;;24.40;52.00;;;;;;5106837;27;43373;-78
2023/05/29 03:25:48;;;;;;;;;;;24.40;52.00;;;;;;5103477;27;42904;-78
2023/05/29 03:28:15;;;;;;;;;;;24.40;51.90;;;;;;5085096;27;63659;-75
2023/05/29 03:30:40;;;;;;;;;;;24.40;52.30;;;;;;5086140;27;42870;-75
2023/05/29 03:33:06;;;;;;;;;;;24.40;52.50;;;;;;5090566;27;43380;-75
2023/05/29 03:35:31;;;;;;;;;;;24.40;52.50;;;;;;5100733;27;42872;-75
2023/05/29 03:37:57;;;;;;;;;;;24.40;51.80;;;;;;5091802;27;43055;-78
2023/05/29 03:40:22;;;;;;;;;;;24.40;51.50;;;;;;5087145;27;42991;-75
2023/05/29 03:42:48;;;;;;;;;;;24.40;52.10;;;;;;5088398;27;43548;-77
2023/05/29 03:45:14;;;;;;;;;;;24.40;51.80;;;;;;5091719;27;42969;-76
2023/05/29 03:47:39;;;;;;;;;;;24.40;51.80;;;;;;5096046;27;43645;-74
2023/05/29 03:50:06;;;;;;;;;;;24.40;51.80;;;;;;5089126;27;43060;-77
2023/05/29 03:52:31;;;;;;;;;;;24.40;51.80;;;;;;5096032;27;43579;-75
2023/05/29 03:54:57;;;;;;;;;;;24.40;52.40;;;;;;5088268;27;42975;-75
2023/05/29 03:57:22;;;;;;;;;;;24.40;51.60;;;;;;5085503;27;42965;-78
2023/05/29 03:59:48;;;;;;;;;;;24.40;52.10;;;;;;5091071;27;43018;-78
2023/05/29 04:02:13;;;;;;;;;;;24.40;51.50;;;;;;5090381;27;43611;-74
2023/05/29 04:04:39;;;;;;;;;;;24.40;51.40;;;;;;5092956;27;43142;-75
2023/05/29 04:07:06;;;;;;;;;;;24.40;51.30;;;;;;5089660;27;44413;-77
2023/05/29 04:09:32;;;;;;;;;;;24.40;51.40;;;;;;5097499;27;43088;-74
2023/05/29 04:11:59;;;;;;;;;;;24.40;51.50;;;;;;5084345;27;42910;-77
2023/05/29 04:14:25;;;;;;;;;;;24.40;51.90;;;;;;5088275;27;42785;-78
2023/05/29 04:16:50;;;;;;;;;;;24.40;51.90;;;;;;5084598;27;42938;-77
2023/05/29 04:19:16;;;;;;;;;;;24.40;51.60;;;;;;5093854;27;43072;-77
2023/05/29 04:21:42;;;;;;;;;;;24.40;52.00;;;;;;5089921;27;43049;-78
2023/05/29 04:24:08;;;;;;;;;;;;;;;;;;5099484;27;42899;-75
2023/05/29 04:26:33;;;;;;;;;;;24.40;51.60;;;;;;5095763;27;43224;-77
2023/05/29 04:28:59;;;;;;;;;;;24.40;51.40;;;;;;5101660;27;43326;-73
2023/05/29 04:31:25;;;;;;;;;;;24.40;51.60;;;;;;5095196;27;42925;-76
2023/05/29 04:33:56;;;;;;;;;;;24.40;51.50;;;;;;5099696;27;43017;-74
2023/05/29 04:36:25;;;;;;;;;;;24.40;51.50;;;;;;5096386;27;43544;-74
2023/05/29 04:38:51;;;;;;;;;;;24.40;51.60;;;;;;5090543;27;42936;-76
2023/05/29 04:41:17;;;;;;;;;;;24.40;51.80;;;;;;5087683;27;43402;-76
2023/05/29 04:43:43;;;;;;;;;;;24.40;52.30;;;;;;5099650;27;42999;-76
2023/05/29 04:46:12;;;;;;;;;;;24.40;50.40;;;;;;5090953;27;43484;-79
2023/05/29 04:48:40;;;;;;;;;;;24.30;50.30;;;;;;5089048;27;43089;-84
2023/05/29 04:51:06;;;;;;;;;;;24.40;50.70;;;;;;5100733;27;42965;-74
2023/05/29 04:53:31;;;;;;;;;;;24.30;50.00;;;;;;5092512;27;43335;-74
2023/05/29 04:55:57;;;;;;;;;;;24.30;50.50;;;;;;5093983;27;42995;-75
2023/05/29 04:58:25;;;;;;;;;;;24.20;50.20;;;;;;5094916;27;43376;-76
2023/05/29 05:00:51;;;;;;;;;;;24.30;50.90;;;;;;5104779;27;42924;-84
2023/05/29 05:03:16;;;;;;;;;;;24.20;50.30;;;;;;5094807;27;42929;-83
2023/05/29 05:05:43;;;;;;;;;;;24.30;50.80;;;;;;5089120;27;43020;-83
2023/05/29 05:08:12;;;;;;;;;;;24.30;50.70;;;;;;5083527;27;42960;-77
2023/05/29 05:10:38;;;;;;;;;;;;;;;;;;5084935;27;43130;-84
2023/05/29 05:13:07;;;;;;;;;;;24.30;50.10;;;;;;5090236;27;42803;-76
2023/05/29 05:15:32;;;;;;;;;;;24.30;50.10;;;;;;5089598;27;42863;-80
2023/05/29 05:17:58;;;;;;;;;;;24.30;50.60;;;;;;5090605;27;42977;-82
2023/05/29 05:20:23;;;;;;;;;;;24.20;49.90;;;;;;5113257;27;43042;-75
2023/05/29 05:22:49;;;;;;;;;;;24.20;49.90;;;;;;5106870;27;42959;-79
2023/05/29 05:25:15;;;;;;;;;;;24.20;49.90;;;;;;5085283;27;43229;-84
2023/05/29 05:27:40;;;;;;;;;;;23.70;49.60;;;;;;5100639;27;42827;-78
2023/05/29 05:30:06;;;;;;;;;;;;;;;;;;5084757;27;42930;-83
2023/05/29 05:32:32;;;;;;;;;;;24.30;50.20;;;;;;5098417;27;42969;-83
2023/05/29 05:34:57;;;;;;;;;;;24.20;50.80;;;;;;5083793;27;43535;-75
2023/05/29 05:37:23;;;;;;;;;;;24.30;50.30;;;;;;5082966;27;42938;-84
2023/05/29 05:39:50;;;;;;;;;;;24.30;50.70;;;;;;5083357;27;43495;-83
2023/05/29 05:42:15;;;;;;;;;;;24.30;50.50;;;;;;5084391;27;42972;-75
2023/05/29 05:44:41;;;;;;;;;;;24.10;50.50;;;;;;5083986;27;43595;-75
2023/05/29 05:47:06;;;;;;;;;;;24.20;50.60;;;;;;5087996;27;42973;-82
2023/05/29 05:49:32;;;;;;;;;;;24.30;50.60;;;;;;5092924;27;42757;-83
2023/05/29 05:51:57;;;;;;;;;;;24.30;51.00;;;;;;5096680;27;42839;-84
2023/05/29 05:54:23;;;;;;;;;;;24.30;50.60;;;;;;5094869;27;42900;-81
2023/05/29 05:56:48;;;;;;;;;;;24.30;51.00;;;;;;5085710;27;42898;-79
2023/05/29 05:59:14;;;;;;;;;;;24.30;50.60;;;;;;5083874;27;42989;-82
2023/05/29 06:01:41;;;;;;;;;;;24.30;50.60;;;;;;5088082;27;43017;-84
2023/05/29 06:04:06;;;;;;;;;;;24.30;50.60;;;;;;5093383;27;43564;-83
2023/05/29 06:06:32;;;;;;;;;;;24.20;51.00;;;;;;5084290;27;43043;-84
2023/05/29 06:08:58;;;;;;;;;;;24.30;50.60;;;;;;5076297;27;44335;-82
2023/05/29 06:11:25;;;;;;;;;;;24.20;50.50;;;;;;5086148;27;43086;-73
2023/05/29 06:13:52;;;;;;;;;;;24.20;50.60;;;;;;5095753;27;43002;-74
2023/05/29 06:16:18;;;;;;;;;;;24.30;51.10;;;;;;5086131;27;43100;-74
2023/05/29 06:18:44;;;;;;;;;;;24.20;50.60;;;;;;5083877;27;43659;-76
2023/05/29 06:21:09;;;;;;;;;;;24.30;50.60;;;;;;5108730;27;43042;-84
2023/05/29 06:23:36;;;;;;;;;;;24.30;50.70;;;;;;5083759;27;43755;-74
2023/05/29 06:26:03;;;;;;;;;;;24.30;50.80;;;;;;5101629;27;42957;-83
2023/05/29 06:28:29;;;;;;;;;;;24.30;51.30;;;;;;5104118;27;43302;-85
2023/05/29 06:30:54;;;;;;;;;;;24.30;50.90;;;;;;5090340;27;42949;-76
2023/05/29 06:33:21;;;;;;;;;;;24.30;51.30;;;;;;5102914;27;43331;-83
2023/05/29 06:35:46;;;;;;;;;;;24.30;50.80;;;;;;5085126;27;43469;-83
2023/05/29 06:38:13;;;;;;;;;;;24.40;51.40;;;;;;5084035;27;42900;-84
2023/05/29 06:40:38;;;;;;;;;;;24.30;51.30;;;;;;5083401;27;43031;-82
2023/05/29 06:43:04;;;;;;;;;;;24.30;51.30;;;;;;5082756;27;43026;-82
2023/05/29 06:45:29;;;;;;;;;;;24.30;51.30;;;;;;5100888;27;42992;-82
2023/05/29 06:47:55;;;;;;;;;;;24.30;51.10;;;;;;5091417;27;43567;-78
2023/05/29 06:50:21;;;;;;;;;;;24.20;49.90;;;;;;5090419;27;43339;-81
2023/05/29 06:52:46;;;;;;;;;;;24.30;50.10;;;;;;5094416;27;43687;-80
2023/05/29 06:55:12;;;;;;;;;;;24.40;50.70;;;;;;5087493;27;42965;-82
2023/05/29 06:57:37;;;;;;;;;;;24.40;50.60;;;;;;5097635;27;43792;-83
2023/05/29 07:00:07;;;;;;;;;;;24.40;50.40;;;;;;5101101;27;42970;-82
2023/05/29 07:02:32;;;;;;;;;;;24.40;50.50;;;;;;5086577;27;43908;-77
2023/05/29 07:04:58;;;;;;;;;;;24.30;50.10;;;;;;5091598;27;43730;-81
2023/05/29 07:07:23;;;;;;;;;;;24.40;50.60;;;;;;5094128;27;43655;-77
2023/05/29 07:09:49;;;;;;;;;;;24.30;50.20;;;;;;5091745;27;42979;-80
2023/05/29 07:12:14;;;;;;;;;;;24.40;50.20;;;;;;5087205;27;44092;-79
2023/05/29 07:14:40;;;;;;;;;;;24.40;50.50;;;;;;5090098;27;43003;-76
2023/05/29 07:17:05;;;;;;;;;;;24.30;49.60;;;;;;5086380;27;42895;-83
2023/05/29 07:19:33;;;;;;;;;;;24.40;50.10;;;;;;5095849;27;43013;-84
2023/05/29 07:21:59;;;;;;;;;;;24.30;49.60;;;;;;5103522;27;44454;-78
2023/05/29 07:24:25;;;;;;;;;;;24.40;49.70;;;;;;5086860;27;43013;-81
2023/05/29 07:26:50;;;;;;;;;;;24.30;48.70;;;;;;5098070;27;43327;-81
2023/05/29 07:29:17;;;;;;;;;;;24.40;48.50;;;;;;5101048;27;43584;-83
2023/05/29 07:31:44;;;;;;;;;;;24.30;48.10;;;;;;5097565;27;43087;-84
2023/05/29 07:34:10;;;;;;;;;;;24.30;47.20;;;;;;5091797;27;43046;-84
2023/05/29 07:36:35;;;;;;;;;;;24.30;47.50;;;;;;5105401;27;43881;-78
2023/05/29 07:39:02;;;;;;;;;;;24.30;47.80;;;;;;5101693;27;43126;-83
2023/05/29 07:41:27;;;;;;;;;;;24.30;47.30;;;;;;5086532;27;44451;-80
2023/05/29 07:43:53;;;;;;;;;;;24.30;48.00;;;;;;5085946;27;43045;-80
2023/05/29 07:46:19;;;;;;;;;;;24.40;48.30;;;;;;5097422;27;43648;-81
2023/05/29 07:48:46;;;;;;;;;;;24.40;47.80;;;;;;5069878;28;42816;-79
2023/05/29 07:51:12;;;;;;;;;;;24.40;47.10;;;;;;5096473;27;43575;-82
2023/05/29 07:53:38;;;;;;;;;;;24.40;47.50;;;;;;5087651;27;43316;-84
2023/05/29 07:56:03;;;;;;;;;;;24.40;47.00;;;;;;5086344;27;43341;-83
2023/05/29 07:58:29;;;;;;;;;;;24.40;47.70;;;;;;5089850;27;43029;-75
2023/05/29 08:00:54;;;;;;;;;;;24.40;47.40;;;;;;5105112;27;43895;-83
2023/05/29 08:03:20;;;;;;;;;;;24.40;47.50;;;;;;5102168;27;42916;-79
2023/05/29 08:05:46;;;;;;;;;;;24.40;48.00;;;;;;5096030;27;43449;-83
2023/05/29 08:08:12;;;;;;;;;;;24.40;47.40;;;;;;5088335;27;42922;-82
2023/05/29 08:10:38;;;;;;;;;;;24.40;47.90;;;;;;5097013;27;43588;-80
2023/05/29 08:13:04;;;;;;;;;;;24.40;47.30;;;;;;5100859;27;43079;-83
2023/05/29 08:15:31;;;;;;;;;;;24.40;47.20;;;;;;5086294;27;43573;-80
2023/05/29 08:17:56;;;;;;;;;;;24.30;47.20;;;;;;5090073;27;43014;-78
2023/05/29 08:20:22;;;;;;;;;;;24.50;47.60;;;;;;5115542;27;43615;-82
2023/05/29 08:22:47;;;;;;;;;;;24.40;47.40;;;;;;5102667;27;42993;-84
2023/05/29 08:25:13;;;;;;;;;;;24.40;47.70;;;;;;5085225;27;42945;-78
2023/05/29 08:27:38;;;;;;;;;;;24.50;47.80;;;;;;5086015;27;42934;-83
2023/05/29 08:30:04;;;;;;;;;;;24.40;47.30;;;;;;5085585;27;42913;-82
2023/05/29 08:32:32;;;;;;;;;;;24.40;47.50;;;;;;5085939;27;42935;-83
2023/05/29 08:34:57;;;;;;;;;;;24.40;47.50;;;;;;5085563;27;43664;-84
2023/05/29 08:37:23;;;;;;;;;;;24.50;48.10;;;;;;5097967;27;42954;-78
2023/05/29 08:39:50;;;;;;;;;;;24.50;47.80;;;;;;5085510;27;43315;-82
2023/05/29 08:42:21;;;;;;;;;;;24.40;46.80;;;;;;5084468;27;42956;-79
2023/05/29 08:44:49;;;;;;;;;;;24.40;47.70;;;;;;5085475;27;43333;-81
2023/05/29 08:47:20;;;;;;;;;;;24.40;47.40;;;;;;5090531;27;43010;-80
2023/05/29 08:49:50;;;;;;;;;;;24.50;47.80;;;;;;5092704;27;43808;-81
2023/05/29 08:52:16;;;;;;;;;;;24.40;47.20;;;;;;5097650;27;42991;-82
2023/05/29 08:54:42;;;;;;;;;;;24.40;47.40;;;;;;5098379;27;43372;-83
2023/05/29 08:57:08;;;;;;;;;;;25.60;48.30;;;;;;5085461;27;43001;-82
2023/05/29 08:59:34;;;;;;;;;;;24.40;47.00;;;;;;5084894;27;43989;-79
2023/05/29 09:02:00;;;;;;;;;;;24.50;47.20;;;;;;5084851;27;43244;-79
2023/05/29 09:04:28;;;;;;;;;;;24.50;47.20;;;;;;5085518;27;42964;-81
2023/05/29 09:06:55;;;;;;;;;;;24.50;47.80;;;;;;5097587;27;43199;-83
2023/05/29 09:09:20;;;;;;;;;;;24.60;47.90;;;;;;5097457;27;42940;-81
2023/05/29 09:11:46;;;;;;;;;;;24.50;47.60;;;;;;5085981;27;42906;-80
2023/05/29 09:14:32;;;;;;;;;;;24.50;47.40;;;;;;5098588;27;42857;-83
2023/05/29 09:16:57;;;;;;;;;;;24.50;47.70;;;;;;5094825;27;43035;-79
2023/05/29 09:19:23;;;;;;;;;;;24.50;47.60;;;;;;5089548;27;43601;-84
2023/05/29 09:21:48;;;;;;;;;;;24.50;47.90;;;;;;5104880;27;43095;-77
2023/05/29 09:24:14;;;;;;;;;;;24.50;48.20;;;;;;5084803;27;43742;-77
2023/05/29 09:26:47;;;;;;;;;;;24.60;48.00;;;;;;5084873;27;42912;-81
2023/05/29 09:29:13;;;;;;;;;;;24.60;47.00;;;;;;5084141;27;42910;-79
2023/05/29 09:31:45;;;;;;;;;;;24.60;47.00;;;;;;5095807;27;43084;-83
2023/05/29 09:34:10;;;;;;;;;;;24.60;46.90;;;;;;5068278;28;44904;-81
2023/05/29 09:36:37;;;;;;;;;;;24.60;46.80;;;;;;5084232;27;42755;-80
2023/05/29 09:39:03;;;;;;;;;;;24.60;46.80;;;;;;5084539;27;43393;-82
2023/05/29 09:41:31;;;;;;;;;;;24.60;47.30;;;;;;5095898;27;42818;-82
2023/05/29 09:43:56;;;;;;;;;;;24.60;47.40;;;;;;5099082;27;43414;-79
2023/05/29 09:46:22;;;;;;;;;;;24.60;47.40;;;;;;5084182;27;43485;-82
2023/05/29 09:48:48;;;;;;;;;;;24.60;46.80;;;;;;5084802;27;43000;-81
2023/05/29 09:51:21;;;;;;;;;;;24.60;47.40;;;;;;5083886;27;43144;-75
2023/05/29 09:53:48;;;;;;;;;;;24.60;46.80;;;;;;5084258;27;42990;-82
2023/05/29 09:56:17;;;;;;;;;;;24.60;47.40;;;;;;5097596;27;43075;-83
2023/05/29 09:58:45;;;;;;;;;;;24.60;47.00;;;;;;5090806;27;42860;-77
2023/05/29 10:01:12;;;;;;;;;;;24.60;47.50;;;;;;5103126;27;42933;-81
2023/05/29 10:03:38;;;;;;;;;;;24.60;47.20;;;;;;5104166;27;44146;-79
2023/05/29 10:06:05;;;;;;;;;;;24.60;47.00;;;;;;5090122;27;42959;-77
2023/05/29 10:08:32;;;;;;;;;;;24.60;47.60;;;;;;5104057;27;43469;-76
2023/05/29 10:11:01;;;;;;;;;;;24.60;47.40;;;;;;5089157;27;42965;-79
2023/05/29 10:13:28;;;;;;;;;;;24.60;47.50;;;;;;5084282;27;43503;-82
2023/05/29 10:15:55;;;;;;;;;;;24.60;47.10;;;;;;5083835;27;43017;-82
2023/05/29 10:18:20;;;;;;;;;;;24.60;47.70;;;;;;5091963;27;42883;-81
2023/05/29 10:20:49;;;;;;;;;;;24.60;47.70;;;;;;5114206;27;42989;-83
2023/05/29 10:23:14;;;;;;;;;;;24.60;47.70;;;;;;5103082;27;43080;-80
2023/05/29 10:25:41;;;;;;;;;;;24.60;47.70;;;;;;5092508;27;42982;-76
2023/05/29 10:28:07;;;;;;;;;;;24.60;47.20;;;;;;5087576;27;42955;-82
2023/05/29 10:30:52;;;;;;;;;;;24.60;47.70;;;;;;5087359;27;43411;-82
2023/05/29 10:33:26;;;;;;;;;;;24.60;47.70;;;;;;5087068;27;43642;-83
2023/05/29 10:35:52;;;;;;;;;;;24.60;47.60;;;;;;5105293;27;43024;-81
2023/05/29 10:38:18;;;;;;;;;;;24.60;47.50;;;;;;5094738;27;43678;-79
2023/05/29 10:40:44;;;;;;;;;;;24.60;47.10;;;;;;5092121;27;43009;-80
2023/05/29 10:43:29;;;;;;;;;;;24.70;47.20;;;;;;5106309;27;42996;-76
2023/05/29 10:45:54;;;;;;;;;;;24.70;47.60;;;;;;5086498;27;43049;-82
2023/05/29 10:48:28;;;;;;;;;;;24.70;47.60;;;;;;5079933;27;44357;-82
2023/05/29 10:50:54;;;;;;;;;;;24.70;47.20;;;;;;5095290;27;42917;-82
2023/05/29 10:53:24;;;;;;;;;;;24.60;47.60;;;;;;5090799;27;42893;-83
2023/05/29 10:55:50;;;;;;;;;;;24.60;47.10;;;;;;5086873;27;43195;-79
2023/05/29 10:58:19;;;;;;;;;;;24.60;47.60;;;;;;5101230;27;43123;-80
2023/05/29 11:00:46;;;;;;;;;;;24.70;47.50;;;;;;5095801;27;43096;-77
2023/05/29 11:03:14;;;;;;;;;;;24.70;47.50;;;;;;5101739;27;44349;-80
2023/05/29 11:06:04;;;;;;;;;;;24.70;47.70;;;;;;5105473;27;43020;-82
2023/05/29 11:08:33;;;;;;;;;;;24.70;47.10;;;;;;5086945;27;43406;-76
2023/05/29 11:10:58;;;;;;;;;;;24.70;47.10;;;;;;5098204;27;42967;-74
2023/05/29 11:13:25;;;;;;;;;;;24.70;47.50;;;;;;5104468;27;42875;-81
2023/05/29 11:16:23;;;;;;;;;;;24.70;47.20;;;;;;5102008;27;43074;-79
2023/05/29 11:18:49;;;;;;;;;;;24.90;46.90;;;;;;5036463;27;43002;-77
2023/05/29 11:21:27;;;;;;;;;;;24.70;47.50;;;;;;5092412;27;43022;-79
2023/05/29 11:23:53;;;;;;;;;;;24.70;47.00;;;;;;5086723;27;43002;-82
2023/05/29 11:26:22;;;;;;;;;;;24.70;46.90;;;;;;5074925;27;43052;-82
2023/05/29 11:28:48;;;;;;;;;;;24.70;47.40;;;;;;5093356;27;43501;-83
2023/05/29 11:31:14;;;;;;;;;;;24.70;47.00;;;;;;5086233;27;43037;-83
2023/05/29 11:33:43;;;;;;;;;;;24.70;46.90;;;;;;5086653;27;44988;-83
2023/05/29 11:36:09;;;;;;;;;;;24.70;47.00;;;;;;5085452;27;43040;-80
2023/05/29 11:38:35;;;;;;;;;;;24.70;47.40;;;;;;5086885;27;43048;-81
2023/05/29 11:41:01;;;;;;;;;;;24.70;46.50;;;;;;5087180;27;43033;-83
2023/05/29 11:43:27;;;;;;;;;;;24.70;46.50;;;;;;5068511;27;44612;-85
2023/05/29 11:45:53;;;;;;;;;;;24.70;46.40;;;;;;5075128;27;42895;-82
2023/05/29 11:48:18;;;;;;;;;;;24.70;46.30;;;;;;5105557;27;42953;-83
2023/05/29 11:50:44;;;;;;;;;;;24.70;45.90;;;;;;5098107;27;42965;-79
2023/05/29 11:53:11;;;;;;;;;;;24.70;45.80;;;;;;5085399;27;43427;-84
2023/05/29 11:55:36;;;;;;;;;;;24.70;45.70;;;;;;5098326;27;43031;-82
2023/05/29 11:58:02;;;;;;;;;;;24.70;45.80;;;;;;5086587;27;42943;-83
2023/05/29 12:00:32;;;;;;;;;;;24.70;45.70;;;;;;5098259;27;42933;-77
2023/05/29 12:03:03;;;;;;;;;;;24.70;46.00;;;;;;5098673;27;43523;-84
2023/05/29 12:05:28;;;;;;;;;;;24.80;45.90;;;;;;5093512;27;43211;-81
2023/05/29 12:07:57;;;;;;;;;;;24.80;45.80;;;;;;5091252;27;42984;-80
2023/05/29 12:10:23;;;;;;;;;;;24.80;46.30;;;;;;5094937;27;42909;-80
2023/05/29 12:12:53;;;;;;;;;;;24.80;45.80;;;;;;5090306;27;42882;-83
2023/05/29 12:15:19;;;;;;;;;;;24.80;46.10;;;;;;5095403;27;43090;-82
2023/05/29 12:17:45;;;;;;;;;;;24.80;45.70;;;;;;5102742;27;43638;-79
2023/05/29 12:20:11;;;;;;;;;;;24.80;45.60;;;;;;5113448;27;42929;-83
2023/05/29 12:22:37;;;;;;;;;;;24.80;46.40;;;;;;5093132;27;43587;-79
2023/05/29 12:25:07;;;;;;;;;;;24.80;46.10;;;;;;5086768;27;43025;-84
2023/05/29 12:27:37;;;;;;;;;;;24.80;46.10;;;;;;5099207;27;43501;-83
2023/05/29 12:30:03;;;;;;;;;;;24.80;46.10;;;;;;5084876;27;43037;-82
2023/05/29 12:32:47;;;;;;;;;;;24.80;46.00;;;;;;5084982;27;43519;-82
2023/05/29 12:35:13;;;;;;;;;;;24.80;45.10;;;;;;5098949;27;42921;-74
2023/05/29 12:38:02;;;;;;;;;;;24.80;45.70;;;;;;5101587;27;43001;-83
2023/05/29 12:40:28;;;;;;;;;;;24.80;45.70;;;;;;5074091;27;42913;-83
2023/05/29 12:43:00;;;;;;;;;;;24.70;45.50;;;;;;5096331;27;43560;-90
2023/05/29 12:45:27;;;;;;;;;;;24.70;45.30;;;;;;5102580;27;43052;-90
2023/05/29 12:47:53;;;;;;;;;;;24.70;45.60;;;;;;5104177;27;43683;-89
2023/05/29 12:50:22;;;;;;;;;;;24.70;45.90;;;;;;5103487;27;43715;-89
2023/05/29 12:53:04;;;;;;;;;;;24.70;45.60;;;;;;5103194;27;42981;-86
2023/05/29 12:55:33;;;;;;;;;;;24.70;44.40;;;;;;5091308;27;42920;-85
2023/05/29 12:57:59;;;;;;;;;;;24.70;45.20;;;;;;5104848;27;43302;-92
2023/05/29 13:00:25;;;;;;;;;;;24.70;44.80;;;;;;5096604;27;43033;-90
2023/05/29 13:02:50;;;;;;;;;;;24.70;44.50;;;;;;5094914;27;42919;-89
2023/05/29 13:05:18;;;;;;;;;;;24.70;44.50;;;;;;5085446;27;42966;-91
2023/05/29 13:07:44;;;;;;;;;;;24.80;45.10;;;;;;5086317;27;43159;-78
2023/05/29 13:10:10;;;;;;;;;;;24.70;45.10;;;;;;5085273;27;42981;-87
2023/05/29 13:12:36;;;;;;;;;;;24.70;44.70;;;;;;5067953;27;43931;-84
2023/05/29 13:15:01;;;;;;;;;;;24.70;45.40;;;;;;5085071;27;42888;-85
2023/05/29 13:17:27;;;;;;;;;;;24.70;45.00;;;;;;5086988;27;43634;-90
2023/05/29 13:19:52;;;;;;;;;;;24.70;44.40;;;;;;5109773;27;43017;-83
2023/05/29 13:22:18;;;;;;;;;;;24.70;45.00;;;;;;5092713;27;43178;-82
2023/05/29 13:24:45;;;;;;;;;;;24.70;44.70;;;;;;5103374;27;43051;-82
2023/05/29 13:27:13;;;;;;;;;;;24.70;44.70;;;;;;5099118;27;42971;-87
2023/05/29 13:29:40;;;;;;;;;;;24.70;44.50;;;;;;5098557;27;42910;-89
2023/05/29 13:32:05;;;;;;;;;;;24.70;45.10;;;;;;5104544;27;42982;-76
2023/05/29 13:34:31;;;;;;;;;;;24.80;45.30;;;;;;5093109;27;42895;-93
2023/05/29 13:36:57;;;;;;;;;;;24.80;45.30;;;;;;5097797;27;43682;-77
2023/05/29 13:39:22;;;;;;;;;;;24.80;44.90;;;;;;5094144;27;42934;-78
2023/05/29 13:41:48;;;;;;;;;;;24.80;45.30;;;;;;5101662;27;42923;-89
2023/05/29 13:44:13;;;;;;;;;;;24.80;44.90;;;;;;5092453;27;43393;-83
2023/05/29 13:46:39;;;;;;;;;;;24.80;44.50;;;;;;5090662;27;43529;-73
2023/05/29 13:49:04;;;;;;;;;;;24.80;45.10;;;;;;5095316;27;42974;-86
2023/05/29 13:51:30;;;;;;;;;;;24.90;44.60;;;;;;5099946;27;43048;-78
2023/05/29 13:53:55;;;;;;;;;;;24.80;44.60;;;;;;5084890;27;42964;-73
2023/05/29 13:56:22;;;;;;;;;;;24.80;44.50;;;;;;5085677;27;43785;-76
2023/05/29 13:58:48;;;;;;;;;;;24.80;44.50;;;;;;5087004;27;43010;-83
2023/05/29 14:01:14;;;;;;;;;;;24.80;44.90;;;;;;5088925;27;43898;-87
2023/05/29 14:03:40;;;;;;;;;;;24.80;44.30;;;;;;5084515;27;42961;-86
2023/05/29 14:06:05;;;;;;;;;;;24.80;44.20;;;;;;5098663;27;43817;-76
2023/05/29 14:08:31;;;;;;;;;;;24.80;44.70;;;;;;5091552;27;43016;-87
2023/05/29 14:10:56;;;;;;;;;;;24.70;44.20;;;;;;5097777;27;42980;-75
2023/05/29 14:13:22;;;;;;;;;;;24.80;44.40;;;;;;5099328;27;42946;-87
2023/05/29 14:15:49;;;;;;;;;;;24.70;43.80;;;;;;5097425;27;43917;-86